Time;durP1;ratioP1;P1;durP2;ratioP2;P2;SDS_P1;SDS_P2;PMS_P1;PMS_P2;Temp;Humidity;BMP_temperature;BMP_pressure;BME280_temperature;BME280_humidity;BME280_pressure;Samples;Min_cycle;Max_cycle;Signal;HPM_P1;HPM_P2
2021/03/08 00:01:08;;;;;;;;;;;;;;;2.39;81.41;99627.22;5032077;28;19921;-78
2021/03/08 00:03:34;;;;;;;;;;;;;;;2.72;80.42;99624.19;5034216;28;19976;-77
2021/03/08 00:05:59;;;;;;;;;;;;;;;3.19;78.55;99622.88;5022406;28;19916;-78
2021/03/08 00:08:25;;;;;;;;;;;;;;;2.84;79.73;99623.44;5031990;28;20636;-78
2021/03/08 00:10:50;;;;;;;;;;;;;;;2.28;82.47;99628.78;5047020;28;19931;-78
2021/03/08 00:13:15;;;;;;;;;;;;;;;1.88;84.99;99630.84;5047124;28;19920;-78
2021/03/08 00:15:40;;;;;;;;;;;;;;;2.20;83.79;99630.41;5049403;28;19923;-77
2021/03/08 00:18:06;;;;;;;;;;;;;;;2.25;83.51;99627.06;5030924;28;20385;-78
2021/03/08 00:20:31;;;;;;;;;;;;;;;2.11;84.09;99631.13;5030604;28;19924;-76
2021/03/08 00:22:57;;;;;;;;;;;;;;;2.25;83.46;99636.38;5049687;28;19924;-78
2021/03/08 00:25:23;;;;;;;;;;;;;;;2.39;82.80;99629.75;5047683;28;20381;-78
2021/03/08 00:27:48;;;;;;;;;;;;;;;2.95;80.19;99625.25;5034070;28;19916;-78
2021/03/08 00:30:14;;;;;;;;;;;;;;;3.04;78.92;99630.41;5030246;28;19927;-78
2021/03/08 00:32:39;;;;;;;;;;;;;;;3.07;78.44;99636.38;5032667;28;20637;-77
2021/03/08 00:35:06;;;;;;;;;;;;;;;2.83;79.34;99631.03;5025642;28;20034;-78
2021/03/08 00:37:31;;;;;;;;;;;;;;;3.06;78.14;99633.81;5048944;28;19921;-78
2021/03/08 00:40:00;;;;;;;;;;;;;;;3.06;78.76;99633.81;5031167;28;19980;-78
2021/03/08 00:42:25;;;;;;;;;;;;;;;2.85;79.14;99630.25;5032248;28;19916;-77
2021/03/08 00:44:51;;;;;;;;;;;;;;;2.63;80.75;99635.97;5018850;28;19920;-78
2021/03/08 00:47:17;;;;;;;;;;;;;;;2.68;80.41;99631.78;5034206;28;20296;-76
2021/03/08 00:49:42;;;;;;;;;;;;;;;3.10;78.70;99627.91;5052245;28;20413;-78
2021/03/08 00:52:07;;;;;;;;;;;;;;;2.36;81.38;99623.81;5037311;28;20570;-77
2021/03/08 00:54:32;;;;;;;;;;;;;;;2.63;81.63;99623.25;5036535;28;20339;-78
2021/03/08 00:56:58;;;;;;;;;;;;;;;2.93;79.39;99622.69;5035919;28;19967;-78
2021/03/08 00:59:23;;;;;;;;;;;;;;;2.59;81.44;99616.41;5035975;28;19971;-78
2021/03/08 01:01:48;;;;;;;;;;;;;;;3.16;79.37;99615.22;5055886;28;19956;-78
2021/03/08 01:04:14;;;;;;;;;;;;;;;2.89;79.50;99616.69;5035383;28;20382;-78
2021/03/08 01:06:39;;;;;;;;;;;;;;;2.87;79.71;99602.25;5034955;28;19921;-78
2021/03/08 01:09:06;;;;;;;;;;;;;;;2.66;80.68;99608.84;5038437;28;20789;-77
2021/03/08 01:11:31;;;;;;;;;;;;;;;2.93;79.86;99600.63;5036659;28;19920;-78
2021/03/08 01:13:57;;;;;;;;;;;;;;;2.91;79.40;99598.91;5053716;28;19917;-78
2021/03/08 01:16:22;;;;;;;;;;;;;;;2.60;80.27;99595.22;5053882;28;19946;-77
2021/03/08 01:18:47;;;;;;;;;;;;;;;2.44;81.92;99597.63;5052573;28;20534;-78
2021/03/08 01:21:13;;;;;;;;;;;;;;;2.35;82.33;99592.47;5029041;28;19959;-77
2021/03/08 01:23:38;;;;;;;;;;;;;;;2.22;83.58;99593.16;5052437;28;19995;-78
2021/03/08 01:26:03;;;;;;;;;;;;;;;1.96;85.47;99593.72;5054865;28;19955;-77
2021/03/08 01:28:29;;;;;;;;;;;;;;;2.00;85.62;99589.50;5036573;28;19916;-78
2021/03/08 01:30:54;;;;;;;;;;;;;;;2.35;84.07;99586.50;5030049;28;19920;-77
2021/03/08 01:33:20;;;;;;;;;;;;;;;2.03;85.66;99590.41;5036151;28;19913;-78
2021/03/08 01:35:45;;;;;;;;;;;;;;;2.78;82.73;99587.78;5037607;28;19931;-78
2021/03/08 01:38:11;;;;;;;;;;;;;;;2.65;81.96;99585.97;5038258;28;19962;-77
2021/03/08 01:40:37;;;;;;;;;;;;;;;2.66;81.94;99582.59;5054894;28;20079;-78
2021/03/08 01:43:03;;;;;;;;;;;;;;;2.82;81.52;99579.34;5027406;28;19928;-78
2021/03/08 01:45:28;;;;;;;;;;;;;;;3.06;80.52;99585.47;5054074;28;19920;-77
2021/03/08 01:47:54;;;;;;;;;;;;;;;2.99;80.58;99586.25;5037742;28;19967;-77
2021/03/08 01:50:19;;;;;;;;;;;;;;;2.78;81.42;99585.22;5051909;28;19917;-78
2021/03/08 01:52:44;;;;;;;;;;;;;;;2.51;83.35;99586.69;5052624;28;20340;-78
2021/03/08 01:55:10;;;;;;;;;;;;;;;2.19;85.38;99575.31;5050790;28;20509;-78
2021/03/08 01:57:36;;;;;;;;;;;;;;;2.37;84.72;99583.13;5050981;28;19913;-77
2021/03/08 02:00:01;;;;;;;;;;;;;;;2.60;83.15;99569.81;5030826;28;19950;-78
2021/03/08 02:02:27;;;;;;;;;;;;;;;2.56;83.31;99575.72;5053903;28;19921;-78
2021/03/08 02:04:52;;;;;;;;;;;;;;;2.88;82.38;99570.91;5051910;28;19931;-78
2021/03/08 02:07:18;;;;;;;;;;;;;;;2.87;82.14;99570.06;5037016;28;20420;-78
2021/03/08 02:09:43;;;;;;;;;;;;;;;3.44;79.99;99564.50;5033742;28;19970;-78
2021/03/08 02:12:13;;;;;;;;;;;;;;;2.58;83.17;99563.84;5032510;28;20374;-78
2021/03/08 02:14:52;;;;;;;;;;;;;;;2.99;82.29;99566.78;5034227;28;19917;-77
2021/03/08 02:17:21;;;;;;;;;;;;;;;2.70;82.71;99561.44;5036220;28;19913;-78
2021/03/08 02:20:11;;;;;;;;;;;;;;;2.70;83.51;99561.44;5056908;28;19920;-78
2021/03/08 02:22:56;;;;;;;;;;;;;;;2.86;82.71;99560.72;5052883;28;19920;-78
2021/03/08 02:25:42;;;;;;;;;;;;;;;2.51;83.81;99560.44;5036909;28;20282;-78
2021/03/08 02:28:25;;;;;;;;;;;;;;;2.74;83.77;99563.16;5053799;28;19974;-78
2021/03/08 02:30:52;;;;;;;;;;;;;;;2.19;86.19;99560.06;5055621;28;20480;-78
2021/03/08 02:33:22;;;;;;;;;;;;;;;2.21;86.44;99556.75;5051258;28;20049;-78
2021/03/08 02:35:50;;;;;;;;;;;;;;;2.42;85.22;99557.78;5035154;28;19920;-78
2021/03/08 02:38:17;;;;;;;;;;;;;;;2.65;84.87;99555.47;5053504;28;20389;-78
2021/03/08 02:40:45;;;;;;;;;;;;;;;2.27;86.68;99554.25;5035145;28;19921;-76
2021/03/08 02:43:22;;;;;;;;;;;;;;;2.49;85.70;99554.47;5034746;28;19998;-78
2021/03/08 02:45:48;;;;;;;;;;;;;;;2.50;85.42;99551.91;5034406;28;19924;-79
2021/03/08 02:48:13;;;;;;;;;;;;;;;2.24;87.25;99548.28;5050878;28;19928;-78
2021/03/08 02:50:38;;;;;;;;;;;;;;;2.10;87.89;99545.59;5023354;28;20008;-75
2021/03/08 02:53:05;;;;;;;;;;;;;;;1.97;89.27;99546.31;5050489;28;19913;-77
2021/03/08 02:55:34;;;;;;;;;;;;;;;1.94;89.52;99547.13;5034299;28;19967;-79
2021/03/08 02:57:59;;;;;;;;;;;;;;;2.31;88.94;99542.44;5036341;28;19982;-78
2021/03/08 03:00:24;;;;;;;;;;;;;;;1.94;90.71;99539.50;5034646;28;19925;-78
2021/03/08 03:02:50;;;;;;;;;;;;;;;1.95;91.02;99541.19;5033811;28;19967;-77
2021/03/08 03:05:16;;;;;;;;;;;;;;;2.02;90.49;99537.88;5049863;28;20382;-78
2021/03/08 03:07:45;;;;;;;;;;;;;;;1.95;91.30;99541.19;5050724;28;19917;-77
2021/03/08 03:10:11;;;;;;;;;;;;;;;2.05;90.96;99543.00;5048826;28;20752;-78
2021/03/08 03:12:37;;;;;;;;;;;;;;;2.02;91.70;99537.03;5034723;28;19924;-78
2021/03/08 03:15:04;;;;;;;;;;;;;;;1.82;92.30;99541.88;5035862;28;19965;-78
2021/03/08 03:17:29;;;;;;;;;;;;;;;1.96;92.33;99542.03;5034312;28;20329;-79
2021/03/08 03:19:55;;;;;;;;;;;;;;;1.93;92.34;99542.84;5033609;28;19920;-78
2021/03/08 03:22:21;;;;;;;;;;;;;;;1.82;93.01;99546.97;5049937;28;19979;-78
2021/03/08 03:24:47;;;;;;;;;;;;;;;1.72;94.04;99547.69;5048888;28;19916;-79
2021/03/08 03:27:12;;;;;;;;;;;;;;;1.79;93.78;99544.41;5027473;28;19932;-79
2021/03/08 03:29:38;;;;;;;;;;;;;;;1.82;93.56;99545.25;5026900;28;20486;-77
2021/03/08 03:32:04;;;;;;;;;;;;;;;1.77;93.94;99546.06;5025745;28;19920;-78
2021/03/08 03:34:29;;;;;;;;;;;;;;;1.84;93.43;99547.84;5049419;28;19927;-78
2021/03/08 03:36:55;;;;;;;;;;;;;;;2.04;92.47;99545.53;5035411;28;19969;-79
2021/03/08 03:39:20;;;;;;;;;;;;;;;1.98;nan;99553.91;5025326;28;19921;-79
2021/03/08 03:41:46;;;;;;;;;;;;;;;2.13;92.22;99550.72;5034602;28;19917;-79
2021/03/08 03:44:11;;;;;;;;;;;;;;;2.09;92.65;99549.81;5024979;28;20333;-79
2021/03/08 03:46:38;;;;;;;;;;;;;;;1.97;92.61;99553.91;5026660;28;20431;-79
2021/03/08 03:49:04;;;;;;;;;;;;;;;2.01;92.46;99551.44;5035420;28;19917;-79
2021/03/08 03:51:29;;;;;;;;;;;;;;;2.15;92.29;99550.72;5033997;28;20281;-79
2021/03/08 03:53:54;;;;;;;;;;;;;;;2.00;92.14;99559.88;5049369;28;20008;-77
2021/03/08 03:56:20;;;;;;;;;;;;;;;1.95;nan;99556.44;5032806;28;19928;-79
2021/03/08 03:58:47;;;;;;;;;;;;;;;2.06;92.59;99559.09;5030869;28;19916;-79
2021/03/08 04:01:19;;;;;;;;;;;;;;;1.96;92.81;99562.34;5047336;28;19984;-79
2021/03/08 04:03:45;;;;;;;;;;;;;;;2.26;91.66;99554.25;5046402;28;19963;-79
2021/03/08 04:06:10;;;;;;;;;;;;;;;2.23;90.98;99559.28;5049111;28;19968;-79
2021/03/08 04:08:35;;;;;;;;;;;;;;;2.01;91.98;99560.75;5048065;28;20311;-76
2021/03/08 04:11:03;;;;;;;;;;;;;;;1.94;93.43;99569.97;5029221;28;19956;-79
2021/03/08 04:13:29;;;;;;;;;;;;;;;1.93;93.22;99567.41;5048368;28;19921;-79
2021/03/08 04:15:55;;;;;;;;;;;;;;;1.92;93.30;99566.56;5050303;28;19923;-79
2021/03/08 04:18:20;;;;;;;;;;;;;;;1.85;93.79;99564.78;5048123;28;19928;-79
2021/03/08 04:20:45;;;;;;;;;;;;;;;1.84;94.33;99566.44;5026105;28;19959;-78
2021/03/08 04:23:11;;;;;;;;;;;;;;;2.03;93.55;99574.28;5024616;28;19932;-79
2021/03/08 04:25:36;;;;;;;;;;;;;;;2.01;93.31;99566.66;5047262;28;19917;-78
2021/03/08 04:28:02;;;;;;;;;;;;;;;1.91;93.49;99569.91;5024250;28;19920;-79
2021/03/08 04:30:27;;;;;;;;;;;;;;;1.94;93.36;99579.25;5031373;28;19935;-79
2021/03/08 04:32:53;;;;;;;;;;;;;;;1.89;94.26;99574.13;5025646;28;20031;-79
2021/03/08 04:35:19;;;;;;;;;;;;;;;1.97;93.88;99579.31;5012779;28;19920;-78
2021/03/08 04:37:44;;;;;;;;;;;;;;;1.99;93.90;99573.41;5026109;28;19955;-79
2021/03/08 04:40:11;;;;;;;;;;;;;;;1.96;94.07;99578.47;5009118;28;19916;-79
2021/03/08 04:42:37;;;;;;;;;;;;;;;1.94;94.17;99576.72;5030560;28;19952;-78
2021/03/08 04:45:02;;;;;;;;;;;;;;;2.02;94.45;99573.44;5013885;28;19963;-79
2021/03/08 04:47:28;;;;;;;;;;;;;;;1.94;94.15;99577.59;5049239;28;19920;-77
2021/03/08 04:49:53;;;;;;;;;;;;;;;2.12;93.42;99579.47;5031644;28;19928;-78
2021/03/08 04:52:19;;;;;;;;;;;;;;;2.04;93.30;99576.84;5010704;28;20043;-79
2021/03/08 04:54:44;;;;;;;;;;;;;;;1.99;93.98;99573.41;5050801;28;19920;-77
2021/03/08 04:57:10;;;;;;;;;;;;;;;2.19;93.28;99582.94;5032147;28;20279;-78
2021/03/08 04:59:35;;;;;;;;;;;;;;;1.97;93.65;99575.09;5049948;28;19925;-78
2021/03/08 05:02:00;;;;;;;;;;;;;;;2.11;93.67;99577.78;5027459;28;19920;-77
2021/03/08 05:04:26;;;;;;;;;;;;;;;2.03;93.43;99584.44;5049567;28;19919;-77
2021/03/08 05:06:52;;;;;;;;;;;;;;;1.95;94.43;99575.91;5051039;28;19917;-78
2021/03/08 05:09:17;;;;;;;;;;;;;;;1.98;94.13;99579.31;5009005;28;20040;-78
2021/03/08 05:11:46;;;;;;;;;;;;;;;1.96;94.96;99569.97;5051723;28;20412;-78
2021/03/08 05:14:16;;;;;;;;;;;;;;;1.95;94.95;99578.44;5035389;28;19927;-78
2021/03/08 05:16:42;;;;;;;;;;;;;;;1.94;95.39;99581.81;5049141;28;19932;-78
2021/03/08 05:19:07;;;;;;;;;;;;;;;2.13;95.34;99580.34;5050662;28;19917;-79
2021/03/08 05:21:33;;;;;;;;;;;;;;;1.95;95.49;99576.75;5000654;28;19979;-77
2021/03/08 05:23:58;;;;;;;;;;;;;;;1.82;96.85;99577.44;4992007;28;19928;-78
2021/03/08 05:26:24;;;;;;;;;;;;;;;1.82;97.41;99582.50;4996250;28;19932;-79
2021/03/08 05:28:49;;;;;;;;;;;;;;;1.90;96.54;99580.09;5031084;28;19984;-79
2021/03/08 05:31:15;;;;;;;;;;;;;;;2.04;95.58;99574.31;5018655;28;20970;-79
2021/03/08 05:33:40;;;;;;;;;;;;;;;2.29;94.95;99574.59;4993628;28;19936;-79
2021/03/08 05:36:06;;;;;;;;;;;;;;;1.99;95.79;99583.56;5035330;28;19943;-80
2021/03/08 05:38:31;;;;;;;;;;;;;;;1.84;97.25;99583.38;4991734;28;20843;-78
2021/03/08 05:41:09;;;;;;;;;;;;;;;1.81;97.73;99578.28;5009238;28;19948;-79
2021/03/08 05:43:36;;;;;;;;;;;;;;;1.84;98.13;99583.38;5018381;28;20382;-78
2021/03/08 05:46:04;;;;;;;;;;;;;;;1.79;98.70;99580.78;5035078;28;19923;-79
2021/03/08 05:48:40;;;;;;;;;;;;;;;1.74;98.80;99581.56;5031869;28;19933;-78
2021/03/08 05:51:05;;;;;;;;;;;;;;;1.82;98.93;99583.34;4993825;28;19920;-79
2021/03/08 05:53:41;;;;;;;;;;;;;;;1.72;99.54;99585.78;5018772;28;20031;-79
2021/03/08 05:56:08;;;;;;;;;;;;;;;1.75;99.43;99588.34;5011917;28;20111;-80
2021/03/08 05:58:48;;;;;;;;;;;;;;;1.78;99.87;99594.34;4992972;28;19921;-78
2021/03/08 06:01:22;;;;;;;;;;;;;;;1.68;100.00;99595.03;5009199;28;19928;-79
2021/03/08 06:04:06;;;;;;;;;;;;;;;1.51;100.00;99597.34;5035285;28;19920;-79
2021/03/08 06:06:32;;;;;;;;;;;;;;;1.31;100.00;99596.22;5037304;28;19913;-78
2021/03/08 06:09:00;;;;;;;;;;;;;;;1.39;100.00;99604.75;5017002;28;19928;-78
2021/03/08 06:11:25;;;;;;;;;;;;;;;1.44;100.00;99593.03;5034441;28;19964;-78
2021/03/08 06:13:54;;;;;;;;;;;;;;;1.36;100.00;99609.81;4989971;28;20018;-79
2021/03/08 06:16:29;;;;;;;;;;;;;;;1.24;100.00;99611.31;5033313;28;19948;-78
2021/03/08 06:18:54;;;;;;;;;;;;;;;1.34;100.00;99611.47;5033373;28;19913;-78
2021/03/08 06:21:19;;;;;;;;;;;;;;;1.36;100.00;99613.19;5009637;28;20485;-79
2021/03/08 06:23:45;;;;;;;;;;;;;;;1.29;100.00;99619.00;5036776;28;19921;-78
2021/03/08 06:26:11;;;;;;;;;;;;;;;1.38;100.00;99618.31;5029448;28;19916;-78
2021/03/08 06:28:37;;;;;;;;;;;;;;;1.54;100.00;99615.16;5044884;28;19912;-79
2021/03/08 06:31:02;;;;;;;;;;;;;;;1.29;100.00;99620.69;5038028;28;20390;-78
2021/03/08 06:33:28;;;;;;;;;;;;;;;1.24;100.00;99621.47;5028930;28;19920;-79
2021/03/08 06:35:54;;;;;;;;;;;;;;;1.15;100.00;99626.41;5045293;28;19916;-77
2021/03/08 06:38:19;;;;;;;;;;;;;;;1.31;100.00;99627.50;5044873;28;19920;-79
2021/03/08 06:40:45;;;;;;;;;;;;;;;1.28;100.00;99631.66;5044564;28;19991;-79
2021/03/08 06:43:10;;;;;;;;;;;;;;;1.25;100.00;99633.34;5036248;28;20221;-77
2021/03/08 06:45:37;;;;;;;;;;;;;;;1.23;100.00;99639.19;5021985;28;20089;-79
2021/03/08 06:48:02;;;;;;;;;;;;;;;1.35;100.00;99639.41;5023354;28;19925;-77
2021/03/08 06:50:28;;;;;;;;;;;;;;;1.19;100.00;99638.31;5021734;28;19925;-78
2021/03/08 06:52:53;;;;;;;;;;;;;;;1.33;100.00;99638.53;5028027;28;19917;-78
2021/03/08 06:55:22;;;;;;;;;;;;;;;1.14;100.00;99645.00;5020128;28;20386;-77
2021/03/08 06:57:48;;;;;;;;;;;;;;;1.08;100.00;99638.97;5039980;28;19923;-80
2021/03/08 07:00:13;;;;;;;;;;;;;;;0.99;100.00;99637.97;5056664;28;19921;-77
2021/03/08 07:02:43;;;;;;;;;;;;;;;0.94;100.00;99642.13;5032841;28;19924;-79
2021/03/08 07:05:09;;;;;;;;;;;;;;;0.93;100.00;99644.63;5040105;28;19916;-80
2021/03/08 07:07:50;;;;;;;;;;;;;;;0.90;100.00;99644.59;5022976;28;19935;-77
2021/03/08 07:10:16;;;;;;;;;;;;;;;0.86;100.00;99647.91;5035183;28;20392;-79
2021/03/08 07:12:48;;;;;;;;;;;;;;;0.98;100.00;99643.91;5039902;28;19979;-79
2021/03/08 07:15:14;;;;;;;;;;;;;;;1.09;100.00;99643.22;5041978;28;19924;-80
2021/03/08 07:17:39;;;;;;;;;;;;;;;0.99;100.00;99649.81;5060873;28;19916;-79
2021/03/08 07:20:05;;;;;;;;;;;;;;;0.90;100.00;99649.66;5040407;28;19920;-80
2021/03/08 07:22:36;;;;;;;;;;;;;;;0.99;100.00;99649.81;5049668;28;19931;-81
2021/03/08 07:25:03;;;;;;;;;;;;;;;0.89;100.00;99650.47;5051141;28;20414;-79
2021/03/08 07:27:44;;;;;;;;;;;;;;;0.93;100.00;99655.63;5050881;28;19963;-80
2021/03/08 07:30:12;;;;;;;;;;;;;;;0.95;100.00;99663.25;5049388;28;19926;-81
2021/03/08 07:32:53;;;;;;;;;;;;;;;0.94;100.00;99659.03;5051392;28;19917;-77
2021/03/08 07:35:31;;;;;;;;;;;;;;;1.00;100.00;99661.66;5042144;28;19924;-80
2021/03/08 07:37:56;;;;;;;;;;;;;;;1.03;100.00;99666.81;5048178;28;19921;-80
2021/03/08 07:40:22;;;;;;;;;;;;;;;1.12;100.00;99672.03;5025336;28;19916;-80
2021/03/08 07:42:48;;;;;;;;;;;;;;;1.23;100.00;99665.44;5051811;28;19917;-81
2021/03/08 07:45:13;;;;;;;;;;;;;;;1.25;100.00;99673.94;5030885;28;19939;-79
2021/03/08 07:47:39;;;;;;;;;;;;;;;1.25;100.00;99671.41;5034939;28;19921;-81
2021/03/08 07:50:24;;;;;;;;;;;;;;;1.30;100.00;99676.56;5050654;28;19920;-78
2021/03/08 07:52:50;;;;;;;;;;;;;;;1.32;100.00;99679.09;5039907;28;20554;-78
2021/03/08 07:55:15;;;;;;;;;;;;;;;1.23;100.00;99688.28;5045014;28;19925;-80
2021/03/08 07:57:40;;;;;;;;;;;;;;;1.30;100.00;99685.81;5050692;28;19916;-81
2021/03/08 08:00:06;;;;;;;;;;;;;;;1.20;100.00;99680.59;5024179;28;19971;-80
2021/03/08 08:02:31;;;;;;;;;;;;;;;1.20;100.00;99685.69;5040261;28;19978;-78
2021/03/08 08:04:57;;;;;;;;;;;;;;;1.35;100.00;99691.84;5026612;28;19928;-80
2021/03/08 08:07:22;;;;;;;;;;;;;;;1.43;100.00;99690.28;5025601;28;20433;-80
2021/03/08 08:09:47;;;;;;;;;;;;;;;1.24;100.00;99684.91;5031837;28;20014;-78
2021/03/08 08:12:15;;;;;;;;;;;;;;;1.14;100.00;99693.22;5049506;28;19970;-78
2021/03/08 08:14:40;;;;;;;;;;;;;;;1.34;100.00;99697.75;5025181;28;19916;-78
2021/03/08 08:17:07;;;;;;;;;;;;;;;1.22;100.00;99695.88;5024003;28;20984;-80
2021/03/08 08:19:32;;;;;;;;;;;;;;;1.18;100.00;99692.41;5024768;28;19924;-79
2021/03/08 08:21:58;;;;;;;;;;;;;;;1.83;100.00;99681.59;5050556;28;20712;-80
2021/03/08 08:24:25;;;;;;;;;;;;;;;2.26;100.00;99683.84;5015780;28;19927;-79
2021/03/08 08:26:52;;;;;;;;;;;;;;;1.83;100.00;99688.34;5016246;28;19913;-79
2021/03/08 08:29:20;;;;;;;;;;;;;;;1.57;100.00;99690.50;5047999;28;19912;-80
2021/03/08 08:31:58;;;;;;;;;;;;;;;1.59;100.00;99693.91;5033442;28;19955;-78
2021/03/08 08:34:31;;;;;;;;;;;;;;;1.53;100.00;99687.06;5030293;28;20027;-79
2021/03/08 08:37:03;;;;;;;;;;;;;;;1.61;100.00;99688.03;5030407;28;20374;-80
2021/03/08 08:39:28;;;;;;;;;;;;;;;1.56;100.00;99689.63;5015896;28;20000;-80
2021/03/08 08:42:02;;;;;;;;;;;;;;;1.49;100.00;99692.06;5032739;28;20030;-80
2021/03/08 08:44:27;;;;;;;;;;;;;;;1.47;100.00;99692.03;5048078;28;19918;-79
2021/03/08 08:46:54;;;;;;;;;;;;;;;1.40;100.00;99693.63;5030182;28;19920;-80
2021/03/08 08:49:19;;;;;;;;;;;;;;;1.45;100.00;99688.63;5030750;28;19917;-80
2021/03/08 08:51:51;;;;;;;;;;;;;;;1.53;100.00;99694.69;5025388;28;19917;-80
2021/03/08 08:54:30;;;;;;;;;;;;;;;1.60;100.00;99700.72;5021252;28;19920;-80
2021/03/08 08:56:58;;;;;;;;;;;;;;;1.68;100.00;99689.81;5046134;28;19919;-80
2021/03/08 08:59:23;;;;;;;;;;;;;;;1.48;100.00;99696.28;5023693;28;19971;-79
2021/03/08 09:01:48;;;;;;;;;;;;;;;1.70;100.00;99691.53;5031155;28;20375;-83
2021/03/08 09:04:18;;;;;;;;;;;;;;;1.98;100.00;99686.00;5035806;28;19977;-80
2021/03/08 09:06:44;;;;;;;;;;;;;;;1.94;100.00;99684.28;5053353;28;20942;-80
2021/03/08 09:09:10;;;;;;;;;;;;;;;2.07;100.00;99687.81;5055896;28;19938;-81
2021/03/08 09:11:43;;;;;;;;;;;;;;;1.88;100.00;99686.72;5042076;28;19920;-80
2021/03/08 09:14:25;;;;;;;;;;;;;;;1.92;100.00;99685.09;5036547;28;19917;-82
2021/03/08 09:17:11;;;;;;;;;;;;;;;2.45;100.00;99680.69;5055700;28;20390;-81
2021/03/08 09:19:36;;;;;;;;;;;;;;;2.03;100.00;99684.41;5036218;28;19925;-82
2021/03/08 09:22:20;;;;;;;;;;;;;;;2.13;100.00;99682.81;5035163;28;20471;-82
2021/03/08 09:24:45;;;;;;;;;;;;;;;2.02;100.00;99679.28;5056037;28;19928;-82
2021/03/08 09:27:21;;;;;;;;;;;;;;;2.36;100.00;99680.56;5036850;28;20291;-82
2021/03/08 09:29:47;;;;;;;;;;;;;;;2.36;100.00;99680.56;5036192;28;19920;-82
2021/03/08 09:32:13;;;;;;;;;;;;;;;2.33;100.00;99678.00;5057302;28;19975;-81
2021/03/08 09:34:38;;;;;;;;;;;;;;;2.30;100.00;99680.50;5054171;28;19916;-81
2021/03/08 09:37:03;;;;;;;;;;;;;;;2.24;100.00;99675.34;5036464;28;19952;-81
2021/03/08 09:39:29;;;;;;;;;;;;;;;2.47;100.00;99684.09;5037681;28;19948;-81
2021/03/08 09:41:54;;;;;;;;;;;;;;;2.62;100.00;99677.47;5043802;28;19916;-81
2021/03/08 09:44:19;;;;;;;;;;;;;;;2.50;100.00;99683.28;5038757;28;19960;-80
2021/03/08 09:46:55;;;;;;;;;;;;;;;2.71;100.00;99678.44;5056342;28;20387;-79
2021/03/08 09:49:20;;;;;;;;;;;;;;;2.66;100.00;99684.31;5056500;28;19916;-80
2021/03/08 09:51:45;;;;;;;;;;;;;;;2.48;100.00;99692.56;5038622;28;19916;-79
2021/03/08 09:54:11;;;;;;;;;;;;;;;2.37;100.00;99692.44;5057942;28;19951;-81
2021/03/08 09:56:39;;;;;;;;;;;;;;;2.43;100.00;99692.50;5040103;28;20389;-80
2021/03/08 09:59:08;;;;;;;;;;;;;;;2.61;100.00;99680.88;5056171;28;19920;-79
2021/03/08 10:01:33;;;;;;;;;;;;;;;2.83;100.00;99687.88;5040499;28;19912;-79
2021/03/08 10:03:59;;;;;;;;;;;;;;;2.84;100.00;99694.66;5056702;28;19938;-81
2021/03/08 10:06:33;;;;;;;;;;;;;;;2.46;100.00;99687.50;5040396;28;19990;-79
2021/03/08 10:08:59;;;;;;;;;;;;;;;2.39;100.00;99685.69;5056318;28;19947;-80
2021/03/08 10:11:25;;;;;;;;;;;;;;;2.34;100.00;99691.56;5022392;28;19983;-79
2021/03/08 10:13:52;;;;;;;;;;;;;;;2.42;100.00;99690.81;5055786;28;19928;-80
2021/03/08 10:16:23;;;;;;;;;;;;;;;2.42;100.00;99690.81;5053357;28;19941;-79
2021/03/08 10:18:49;;;;;;;;;;;;;;;2.91;100.00;99691.34;5040185;28;19949;-80
2021/03/08 10:21:14;;;;;;;;;;;;;;;2.56;100.00;99687.59;5020672;28;19912;-80
2021/03/08 10:23:40;;;;;;;;;;;;;;;2.84;100.00;99699.75;5055033;28;19920;-80
2021/03/08 10:26:13;;;;;;;;;;;;;;;2.27;100.00;99695.72;5040737;28;20298;-79
2021/03/08 10:28:39;;;;;;;;;;;;;;;2.58;100.00;99693.53;5054285;28;19968;-79
2021/03/08 10:31:07;;;;;;;;;;;;;;;2.50;100.00;99696.84;5027670;28;20003;-79
2021/03/08 10:33:33;;;;;;;;;;;;;;;2.62;100.00;99705.44;5053300;28;20525;-80
2021/03/08 10:35:58;;;;;;;;;;;;;;;2.28;100.00;99697.41;5020702;28;19968;-79
2021/03/08 10:38:27;;;;;;;;;;;;;;;2.25;100.00;99707.53;5035593;28;19917;-80
2021/03/08 10:40:58;;;;;;;;;;;;;;;2.60;100.00;99700.34;5023150;28;19920;-79
2021/03/08 10:43:24;;;;;;;;;;;;;;;2.48;100.00;99698.50;5037672;28;20336;-79
2021/03/08 10:45:50;;;;;;;;;;;;;;;2.58;100.00;99696.06;5019648;28;19920;-80
2021/03/08 10:48:15;;;;;;;;;;;;;;;2.41;100.00;99689.09;5051870;28;19913;-79
2021/03/08 10:50:42;;;;;;;;;;;;;;;2.65;100.00;99697.88;5034470;28;19925;-79
2021/03/08 10:53:07;;;;;;;;;;;;;;;3.11;100.00;99698.34;5052095;28;19916;-80
2021/03/08 10:55:33;;;;;;;;;;;;;;;3.66;100.00;99691.13;5037099;28;20345;-79
2021/03/08 10:57:59;;;;;;;;;;;;;;;4.37;100.00;99688.97;5051499;28;20007;-79
2021/03/08 11:00:24;;;;;;;;;;;;;;;4.76;97.60;99692.50;5052882;28;19913;-79
2021/03/08 11:02:49;;;;;;;;;;;;;;;3.23;100.00;99700.13;5018689;28;19916;-79
2021/03/08 11:05:15;;;;;;;;;;;;;;;3.57;100.00;99693.63;5017629;28;19917;-79
2021/03/08 11:07:42;;;;;;;;;;;;;;;3.30;100.00;99697.63;5033700;28;20011;-79
2021/03/08 11:10:07;;;;;;;;;;;;;;;3.32;100.00;99692.56;5032384;28;19932;-79
2021/03/08 11:12:33;;;;;;;;;;;;;;;3.11;100.00;99693.25;5035403;28;20832;-79
2021/03/08 11:14:59;;;;;;;;;;;;;;;3.17;100.00;99698.41;5052842;28;19912;-79
2021/03/08 11:17:32;;;;;;;;;;;;;;;3.16;100.00;99701.75;5038095;28;19917;-79
2021/03/08 11:20:05;;;;;;;;;;;;;;;4.11;100.00;99701.63;5050876;28;19920;-79
2021/03/08 11:22:30;;;;;;;;;;;;;;;3.54;100.00;99704.63;5020729;28;20008;-79
2021/03/08 11:24:55;;;;;;;;;;;;;;;3.33;100.00;99700.22;5012797;28;20465;-79
2021/03/08 11:27:23;;;;;;;;;;;;;;;3.24;100.00;99695.06;4990162;28;19916;-81
2021/03/08 11:30:05;;;;;;;;;;;;;;;3.27;100.00;99700.16;5013830;28;19960;-79
2021/03/08 11:32:31;;;;;;;;;;;;;;;3.04;100.00;99701.66;5030482;28;19924;-80
2021/03/08 11:34:56;;;;;;;;;;;;;;;2.66;100.00;99704.66;4996244;28;20023;-79
2021/03/08 11:37:22;;;;;;;;;;;;;;;3.06;100.00;99703.38;5013022;28;20359;-79
2021/03/08 11:39:49;;;;;;;;;;;;;;;3.23;100.00;99700.97;5010171;28;19974;-79
2021/03/08 11:42:16;;;;;;;;;;;;;;;3.22;100.00;99699.28;4995628;28;19944;-80
2021/03/08 11:44:45;;;;;;;;;;;;;;;3.32;100.00;99698.50;5033276;28;19974;-79
2021/03/08 11:47:12;;;;;;;;;;;;;;;2.99;100.00;99700.75;5031945;28;20012;-80
2021/03/08 11:49:38;;;;;;;;;;;;;;;2.86;100.00;99703.16;4998214;28;20652;-79
2021/03/08 11:52:04;;;;;;;;;;;;;;;3.06;100.00;99703.38;5029974;28;19996;-80
2021/03/08 11:54:29;;;;;;;;;;;;;;;2.83;100.00;99702.28;5011567;28;19945;-79
2021/03/08 11:56:56;;;;;;;;;;;;;;;2.96;100.00;99704.09;5007188;28;19935;-79
2021/03/08 11:59:26;;;;;;;;;;;;;;;3.07;100.00;99702.53;5028092;28;19917;-80
2021/03/08 12:01:52;;;;;;;;;;;;;;;3.08;100.00;99698.28;5015949;28;19928;-80
2021/03/08 12:04:19;;;;;;;;;;;;;;;3.00;100.00;99703.31;5033069;28;19916;-80
2021/03/08 12:06:44;;;;;;;;;;;;;;;2.83;100.00;99703.16;5018557;28;19941;-80
2021/03/08 12:09:10;;;;;;;;;;;;;;;2.89;100.00;99703.19;5034630;28;19920;-80
2021/03/08 12:11:35;;;;;;;;;;;;;;;3.03;100.00;99694.84;5009173;28;20016;-80
2021/03/08 12:14:00;;;;;;;;;;;;;;;3.00;100.00;99694.81;5033308;28;19916;-80
2021/03/08 12:16:26;;;;;;;;;;;;;;;2.91;100.00;99691.34;5007447;28;20386;-79
2021/03/08 12:18:51;;;;;;;;;;;;;;;3.00;100.00;99690.59;5015175;28;19917;-80
2021/03/08 12:21:18;;;;;;;;;;;;;;;3.12;100.00;99684.75;5008392;28;20086;-80
2021/03/08 12:23:43;;;;;;;;;;;;;;;3.19;100.00;99683.97;5034099;28;20027;-80
2021/03/08 12:26:09;;;;;;;;;;;;;;;3.22;100.00;99681.47;5035233;28;20556;-80
2021/03/08 12:28:34;;;;;;;;;;;;;;;3.03;100.00;99677.03;5038287;28;20289;-80
2021/03/08 12:30:59;;;;;;;;;;;;;;;3.20;100.00;99683.16;5037888;28;20039;-80
2021/03/08 12:33:25;;;;;;;;;;;;;;;3.28;100.00;99680.66;5054794;28;20381;-80
2021/03/08 12:35:51;;;;;;;;;;;;;;;3.05;100.00;99678.75;5033495;28;19921;-80
2021/03/08 12:38:16;;;;;;;;;;;;;;;3.23;100.00;99678.06;5016706;28;19921;-80
2021/03/08 12:40:41;;;;;;;;;;;;;;;3.13;100.00;99674.59;5034348;28;19924;-79
2021/03/08 12:43:08;;;;;;;;;;;;;;;3.14;100.00;99668.66;5054920;28;19921;-79
2021/03/08 12:45:34;;;;;;;;;;;;;;;3.26;100.00;99667.94;5036409;28;19920;-80
2021/03/08 12:47:59;;;;;;;;;;;;;;;3.30;100.00;99669.63;5022645;28;20412;-80
2021/03/08 12:50:25;;;;;;;;;;;;;;;3.30;100.00;99667.09;5054376;28;19921;-79
2021/03/08 12:52:50;;;;;;;;;;;;;;;3.45;100.00;99668.06;5055873;28;19971;-80